sensor_id;sensor_type;location;lat;lon;timestamp;temperature;humidity
563;DHT22;266;49.514;8.294;2023-07-30T00:02:04;19.00;99.90
563;DHT22;266;49.514;8.294;2023-07-30T00:04:32;19.00;99.90
563;DHT22;266;49.514;8.294;2023-07-30T00:07:00;19.00;99.90
563;DHT22;266;49.514;8.294;2023-07-30T00:09:28;19.10;99.90
563;DHT22;266;49.514;8.294;2023-07-30T00:11:55;19.00;99.90
563;DHT22;266;49.514;8.294;2023-07-30T00:14:23;19.00;99.90
563;DHT22;266;49.514;8.294;2023-07-30T00:16:53;19.10;99.90
563;DHT22;266;49.514;8.294;2023-07-30T00:19:21;19.10;99.90
563;DHT22;266;49.514;8.294;2023-07-30T00:21:49;19.10;99.90
563;DHT22;266;49.514;8.294;2023-07-30T00:24:17;19.10;99.90
563;DHT22;266;49.514;8.294;2023-07-30T00:26:45;19.10;99.90
563;DHT22;266;49.514;8.294;2023-07-30T00:29:13;19.10;99.90
563;DHT22;266;49.514;8.294;2023-07-30T00:31:41;19.10;99.90
563;DHT22;266;49.514;8.294;2023-07-30T00:34:10;19.10;99.90
563;DHT22;266;49.514;8.294;2023-07-30T00:36:38;19.10;99.90
563;DHT22;266;49.514;8.294;2023-07-30T00:39:07;19.10;99.90
563;DHT22;266;49.514;8.294;2023-07-30T00:41:37;19.10;99.90
563;DHT22;266;49.514;8.294;2023-07-30T00:44:06;19.10;99.90
563;DHT22;266;49.514;8.294;2023-07-30T00:46:34;19.10;99.90
563;DHT22;266;49.514;8.294;2023-07-30T00:49:02;19.10;99.90
563;DHT22;266;49.514;8.294;2023-07-30T00:51:34;19.10;99.90
563;DHT22;266;49.514;8.294;2023-07-30T00:54:02;19.10;99.90
563;DHT22;266;49.514;8.294;2023-07-30T00:56:31;19.10;99.90
563;DHT22;266;49.514;8.294;2023-07-30T00:58:59;19.10;99.90
563;DHT22;266;49.514;8.294;2023-07-30T01:01:28;19.10;99.90
563;DHT22;266;49.514;8.294;2023-07-30T01:03:56;19.10;99.90
563;DHT22;266;49.514;8.294;2023-07-30T01:06:25;19.10;99.90
563;DHT22;266;49.514;8.294;2023-07-30T01:08:54;19.10;99.90
563;DHT22;266;49.514;8.294;2023-07-30T01:11:22;19.10;99.90
563;DHT22;266;49.514;8.294;2023-07-30T01:13:53;19.10;99.90
563;DHT22;266;49.514;8.294;2023-07-30T01:16:22;19.10;99.90
563;DHT22;266;49.514;8.294;2023-07-30T01:18:50;19.10;99.90
563;DHT22;266;49.514;8.294;2023-07-30T01:21:19;19.10;99.90
563;DHT22;266;49.514;8.294;2023-07-30T01:23:47;19.20;99.90
563;DHT22;266;49.514;8.294;2023-07-30T01:26:19;19.20;99.90
563;DHT22;266;49.514;8.294;2023-07-30T01:28:54;19.10;99.90
563;DHT22;266;49.514;8.294;2023-07-30T01:31:25;19.00;99.90
563;DHT22;266;49.514;8.294;2023-07-30T01:33:55;19.00;99.90
563;DHT22;266;49.514;8.294;2023-07-30T01:36:26;18.90;99.90
563;DHT22;266;49.514;8.294;2023-07-30T01:38:56;19.00;99.90
563;DHT22;266;49.514;8.294;2023-07-30T01:41:25;18.90;99.90
563;DHT22;266;49.514;8.294;2023-07-30T01:43:53;18.90;99.90
563;DHT22;266;49.514;8.294;2023-07-30T01:46:21;19.00;99.90
563;DHT22;266;49.514;8.294;2023-07-30T01:48:49;18.90;99.90
563;DHT22;266;49.514;8.294;2023-07-30T01:51:17;18.90;99.90
563;DHT22;266;49.514;8.294;2023-07-30T01:53:46;18.90;99.90
563;DHT22;266;49.514;8.294;2023-07-30T01:56:14;18.90;99.90
563;DHT22;266;49.514;8.294;2023-07-30T01:58:42;18.90;99.90
563;DHT22;266;49.514;8.294;2023-07-30T02:01:10;18.90;99.90
563;DHT22;266;49.514;8.294;2023-07-30T02:03:38;18.90;99.90
563;DHT22;266;49.514;8.294;2023-07-30T02:06:06;19.00;99.90
563;DHT22;266;49.514;8.294;2023-07-30T02:08:34;19.00;99.90
563;DHT22;266;49.514;8.294;2023-07-30T02:11:04;19.00;99.90
563;DHT22;266;49.514;8.294;2023-07-30T02:13:31;19.00;99.90
563;DHT22;266;49.514;8.294;2023-07-30T02:16:00;19.00;99.90
563;DHT22;266;49.514;8.294;2023-07-30T02:18:28;19.00;99.90
563;DHT22;266;49.514;8.294;2023-07-30T02:20:55;19.00;99.90
563;DHT22;266;49.514;8.294;2023-07-30T02:23:24;19.00;99.90
563;DHT22;266;49.514;8.294;2023-07-30T02:25:52;19.00;99.90
563;DHT22;266;49.514;8.294;2023-07-30T02:28:21;19.00;99.90
563;DHT22;266;49.514;8.294;2023-07-30T02:30:49;19.10;99.90
563;DHT22;266;49.514;8.294;2023-07-30T02:33:17;19.00;99.90
563;DHT22;266;49.514;8.294;2023-07-30T02:35:45;19.00;99.90
563;DHT22;266;49.514;8.294;2023-07-30T02:38:13;19.00;99.90
563;DHT22;266;49.514;8.294;2023-07-30T02:40:41;19.00;99.90
563;DHT22;266;49.514;8.294;2023-07-30T02:43:09;18.90;99.90
563;DHT22;266;49.514;8.294;2023-07-30T02:45:39;18.90;99.90
563;DHT22;266;49.514;8.294;2023-07-30T02:48:07;18.80;99.90
563;DHT22;266;49.514;8.294;2023-07-30T02:50:35;18.80;99.90
563;DHT22;266;49.514;8.294;2023-07-30T02:53:03;18.80;99.90
563;DHT22;266;49.514;8.294;2023-07-30T02:55:31;18.80;99.90
563;DHT22;266;49.514;8.294;2023-07-30T02:57:59;18.80;99.90
563;DHT22;266;49.514;8.294;2023-07-30T03:00:27;18.80;99.90
563;DHT22;266;49.514;8.294;2023-07-30T03:02:56;18.80;99.90
563;DHT22;266;49.514;8.294;2023-07-30T03:05:25;18.80;99.90
563;DHT22;266;49.514;8.294;2023-07-30T03:07:53;18.80;99.90
563;DHT22;266;49.514;8.294;2023-07-30T03:10:21;18.70;99.90
563;DHT22;266;49.514;8.294;2023-07-30T03:12:49;18.70;99.90
563;DHT22;266;49.514;8.294;2023-07-30T03:15:17;18.80;99.90
563;DHT22;266;49.514;8.294;2023-07-30T03:17:45;18.80;99.90
563;DHT22;266;49.514;8.294;2023-07-30T03:20:15;18.80;99.90
563;DHT22;266;49.514;8.294;2023-07-30T03:22:44;18.80;99.90
563;DHT22;266;49.514;8.294;2023-07-30T03:25:14;18.80;99.90
563;DHT22;266;49.514;8.294;2023-07-30T03:27:42;18.80;99.90
563;DHT22;266;49.514;8.294;2023-07-30T03:30:11;18.70;99.90
563;DHT22;266;49.514;8.294;2023-07-30T03:32:39;18.70;99.90
563;DHT22;266;49.514;8.294;2023-07-30T03:35:08;18.80;99.90
563;DHT22;266;49.514;8.294;2023-07-30T03:37:37;18.70;99.90
563;DHT22;266;49.514;8.294;2023-07-30T03:40:06;18.70;99.90
563;DHT22;266;49.514;8.294;2023-07-30T03:42:34;18.70;99.90
563;DHT22;266;49.514;8.294;2023-07-30T03:45:03;18.70;99.90
563;DHT22;266;49.514;8.294;2023-07-30T03:47:31;18.70;99.90
563;DHT22;266;49.514;8.294;2023-07-30T03:49:59;18.70;99.90
563;DHT22;266;49.514;8.294;2023-07-30T03:52:27;18.70;99.90
563;DHT22;266;49.514;8.294;2023-07-30T03:54:56;18.80;99.90
563;DHT22;266;49.514;8.294;2023-07-30T03:57:24;18.80;99.90
563;DHT22;266;49.514;8.294;2023-07-30T03:59:52;18.70;99.90
563;DHT22;266;49.514;8.294;2023-07-30T04:02:20;18.80;99.90
563;DHT22;266;49.514;8.294;2023-07-30T04:04:48;18.80;99.90
563;DHT22;266;49.514;8.294;2023-07-30T04:07:16;18.70;99.90
563;DHT22;266;49.514;8.294;2023-07-30T04:09:44;18.80;99.90
563;DHT22;266;49.514;8.294;2023-07-30T04:12:14;18.80;99.90
563;DHT22;266;49.514;8.294;2023-07-30T04:14:42;18.80;99.90
563;DHT22;266;49.514;8.294;2023-07-30T04:17:10;18.80;99.90
563;DHT22;266;49.514;8.294;2023-07-30T04:19:38;18.80;99.90
563;DHT22;266;49.514;8.294;2023-07-30T04:22:06;18.70;99.90
563;DHT22;266;49.514;8.294;2023-07-30T04:24:34;18.80;99.90
563;DHT22;266;49.514;8.294;2023-07-30T04:27:02;18.70;99.90
563;DHT22;266;49.514;8.294;2023-07-30T04:29:32;18.80;99.90
563;DHT22;266;49.514;8.294;2023-07-30T04:32:00;18.80;99.90
563;DHT22;266;49.514;8.294;2023-07-30T04:34:27;18.90;99.90
563;DHT22;266;49.514;8.294;2023-07-30T04:36:55;18.80;99.90
563;DHT22;266;49.514;8.294;2023-07-30T04:39:23;18.80;99.90
563;DHT22;266;49.514;8.294;2023-07-30T04:41:52;18.80;99.90
563;DHT22;266;49.514;8.294;2023-07-30T04:44:20;18.90;99.90
563;DHT22;266;49.514;8.294;2023-07-30T04:46:49;18.90;99.90
563;DHT22;266;49.514;8.294;2023-07-30T04:49:17;18.90;99.90
563;DHT22;266;49.514;8.294;2023-07-30T04:51:45;18.90;99.90
563;DHT22;266;49.514;8.294;2023-07-30T04:54:13;18.90;99.90
563;DHT22;266;49.514;8.294;2023-07-30T04:56:41;18.90;99.90
563;DHT22;266;49.514;8.294;2023-07-30T04:59:09;18.90;99.90
563;DHT22;266;49.514;8.294;2023-07-30T05:01:38;18.90;99.90
563;DHT22;266;49.514;8.294;2023-07-30T05:04:08;18.90;99.90
563;DHT22;266;49.514;8.294;2023-07-30T05:06:35;19.00;99.90
563;DHT22;266;49.514;8.294;2023-07-30T05:09:03;19.00;99.90
563;DHT22;266;49.514;8.294;2023-07-30T05:11:32;19.00;99.90
563;DHT22;266;49.514;8.294;2023-07-30T05:13:59;19.10;99.90
563;DHT22;266;49.514;8.294;2023-07-30T05:16:27;19.10;99.90
563;DHT22;266;49.514;8.294;2023-07-30T05:18:55;19.10;99.90
563;DHT22;266;49.514;8.294;2023-07-30T05:21:25;19.10;99.90
563;DHT22;266;49.514;8.294;2023-07-30T05:23:53;19.10;99.90
563;DHT22;266;49.514;8.294;2023-07-30T05:26:21;19.20;99.90
563;DHT22;266;49.514;8.294;2023-07-30T05:28:49;19.30;99.90
563;DHT22;266;49.514;8.294;2023-07-30T05:31:17;19.30;99.90
563;DHT22;266;49.514;8.294;2023-07-30T05:33:45;19.40;99.90
563;DHT22;266;49.514;8.294;2023-07-30T05:36:13;19.40;99.90
563;DHT22;266;49.514;8.294;2023-07-30T05:38:42;19.50;99.90
563;DHT22;266;49.514;8.294;2023-07-30T05:41:10;19.70;99.90
563;DHT22;266;49.514;8.294;2023-07-30T05:43:38;19.80;99.90
563;DHT22;266;49.514;8.294;2023-07-30T05:46:06;19.80;99.90
563;DHT22;266;49.514;8.294;2023-07-30T05:48:34;19.90;99.90
563;DHT22;266;49.514;8.294;2023-07-30T05:51:02;19.90;99.90
563;DHT22;266;49.514;8.294;2023-07-30T05:53:30;19.90;99.90
563;DHT22;266;49.514;8.294;2023-07-30T05:56:00;19.90;99.90
563;DHT22;266;49.514;8.294;2023-07-30T05:58:28;20.00;99.90
563;DHT22;266;49.514;8.294;2023-07-30T06:00:56;20.00;99.90
563;DHT22;266;49.514;8.294;2023-07-30T06:03:24;20.10;99.90
563;DHT22;266;49.514;8.294;2023-07-30T06:05:52;20.10;99.90
563;DHT22;266;49.514;8.294;2023-07-30T06:08:20;20.20;99.90
563;DHT22;266;49.514;8.294;2023-07-30T06:10:49;20.30;99.90
563;DHT22;266;49.514;8.294;2023-07-30T06:13:18;20.30;99.90
563;DHT22;266;49.514;8.294;2023-07-30T06:15:46;20.30;99.90
563;DHT22;266;49.514;8.294;2023-07-30T06:18:14;20.40;99.90
563;DHT22;266;49.514;8.294;2023-07-30T06:20:42;20.40;99.90
563;DHT22;266;49.514;8.294;2023-07-30T06:23:10;20.50;99.90
563;DHT22;266;49.514;8.294;2023-07-30T06:25:38;20.60;99.90
563;DHT22;266;49.514;8.294;2023-07-30T06:28:06;20.70;99.90
563;DHT22;266;49.514;8.294;2023-07-30T06:30:35;20.70;99.90
563;DHT22;266;49.514;8.294;2023-07-30T06:33:05;20.70;99.90
563;DHT22;266;49.514;8.294;2023-07-30T06:35:33;20.80;99.90
563;DHT22;266;49.514;8.294;2023-07-30T06:38:01;20.80;99.90
563;DHT22;266;49.514;8.294;2023-07-30T06:40:29;20.90;99.90
563;DHT22;266;49.514;8.294;2023-07-30T06:42:58;20.90;99.90
563;DHT22;266;49.514;8.294;2023-07-30T06:45:26;20.90;99.90
563;DHT22;266;49.514;8.294;2023-07-30T06:47:55;21.00;99.90
563;DHT22;266;49.514;8.294;2023-07-30T06:50:23;21.00;99.90
563;DHT22;266;49.514;8.294;2023-07-30T06:52:51;21.10;99.90
563;DHT22;266;49.514;8.294;2023-07-30T06:55:19;21.30;99.90
563;DHT22;266;49.514;8.294;2023-07-30T06:57:47;21.30;99.90
563;DHT22;266;49.514;8.294;2023-07-30T07:00:15;21.20;99.90
563;DHT22;266;49.514;8.294;2023-07-30T07:02:48;21.20;99.90
563;DHT22;266;49.514;8.294;2023-07-30T07:05:18;21.20;99.90
563;DHT22;266;49.514;8.294;2023-07-30T07:07:46;21.10;99.90
563;DHT22;266;49.514;8.294;2023-07-30T07:10:14;21.00;99.90
563;DHT22;266;49.514;8.294;2023-07-30T07:12:43;21.00;99.90
563;DHT22;266;49.514;8.294;2023-07-30T07:15:11;21.00;99.90
563;DHT22;266;49.514;8.294;2023-07-30T07:17:39;21.10;99.90
563;DHT22;266;49.514;8.294;2023-07-30T07:20:07;21.10;99.90
563;DHT22;266;49.514;8.294;2023-07-30T07:22:37;21.20;99.90
563;DHT22;266;49.514;8.294;2023-07-30T07:25:05;21.20;99.90
563;DHT22;266;49.514;8.294;2023-07-30T07:27:33;21.10;99.90
563;DHT22;266;49.514;8.294;2023-07-30T07:30:02;21.10;99.90
563;DHT22;266;49.514;8.294;2023-07-30T07:32:30;21.10;99.90
563;DHT22;266;49.514;8.294;2023-07-30T07:35:05;21.20;99.90
563;DHT22;266;49.514;8.294;2023-07-30T07:37:34;21.30;99.90
563;DHT22;266;49.514;8.294;2023-07-30T07:40:04;21.50;99.90
563;DHT22;266;49.514;8.294;2023-07-30T07:42:32;21.60;99.90
563;DHT22;266;49.514;8.294;2023-07-30T07:45:01;21.70;99.90
563;DHT22;266;49.514;8.294;2023-07-30T07:47:29;21.90;99.90
563;DHT22;266;49.514;8.294;2023-07-30T07:49:57;22.00;99.90
563;DHT22;266;49.514;8.294;2023-07-30T07:52:25;22.10;99.90
563;DHT22;266;49.514;8.294;2023-07-30T07:54:53;22.30;99.90
563;DHT22;266;49.514;8.294;2023-07-30T07:57:22;22.30;99.90
563;DHT22;266;49.514;8.294;2023-07-30T07:59:50;22.30;99.90
563;DHT22;266;49.514;8.294;2023-07-30T08:02:18;22.30;99.90
563;DHT22;266;49.514;8.294;2023-07-30T08:04:46;22.30;99.90
563;DHT22;266;49.514;8.294;2023-07-30T08:07:15;22.20;99.90
563;DHT22;266;49.514;8.294;2023-07-30T08:09:42;22.20;99.90
563;DHT22;266;49.514;8.294;2023-07-30T08:12:11;22.20;99.90
563;DHT22;266;49.514;8.294;2023-07-30T08:14:42;22.30;99.90
563;DHT22;266;49.514;8.294;2023-07-30T08:17:10;22.30;99.90
563;DHT22;266;49.514;8.294;2023-07-30T08:19:38;22.40;99.90
563;DHT22;266;49.514;8.294;2023-07-30T08:22:06;22.40;99.90
563;DHT22;266;49.514;8.294;2023-07-30T08:24:34;22.60;99.90
563;DHT22;266;49.514;8.294;2023-07-30T08:27:02;22.70;99.90
563;DHT22;266;49.514;8.294;2023-07-30T08:29:30;22.80;99.90
563;DHT22;266;49.514;8.294;2023-07-30T08:32:00;22.80;99.90
563;DHT22;266;49.514;8.294;2023-07-30T08:34:28;22.70;99.90
563;DHT22;266;49.514;8.294;2023-07-30T08:36:56;22.60;99.90
563;DHT22;266;49.514;8.294;2023-07-30T08:39:23;22.70;99.90
563;DHT22;266;49.514;8.294;2023-07-30T08:41:52;22.70;99.90
563;DHT22;266;49.514;8.294;2023-07-30T08:44:20;22.70;99.90
563;DHT22;266;49.514;8.294;2023-07-30T08:46:48;22.70;99.90
563;DHT22;266;49.514;8.294;2023-07-30T08:49:20;23.00;99.90
563;DHT22;266;49.514;8.294;2023-07-30T08:51:52;23.20;99.90
563;DHT22;266;49.514;8.294;2023-07-30T08:54:20;23.10;99.90
563;DHT22;266;49.514;8.294;2023-07-30T08:56:50;23.30;99.90
563;DHT22;266;49.514;8.294;2023-07-30T08:59:19;23.40;99.90
563;DHT22;266;49.514;8.294;2023-07-30T09:01:50;23.70;99.90
563;DHT22;266;49.514;8.294;2023-07-30T09:04:21;24.30;99.90
563;DHT22;266;49.514;8.294;2023-07-30T09:06:49;24.60;99.90
563;DHT22;266;49.514;8.294;2023-07-30T09:09:19;24.60;99.90
563;DHT22;266;49.514;8.294;2023-07-30T09:11:51;24.40;99.90
563;DHT22;266;49.514;8.294;2023-07-30T09:14:20;24.20;99.90
563;DHT22;266;49.514;8.294;2023-07-30T09:16:48;24.00;99.90
563;DHT22;266;49.514;8.294;2023-07-30T09:19:21;23.90;99.90
563;DHT22;266;49.514;8.294;2023-07-30T09:21:49;23.80;99.90
563;DHT22;266;49.514;8.294;2023-07-30T09:24:21;23.70;99.90
563;DHT22;266;49.514;8.294;2023-07-30T09:26:49;23.50;99.90
563;DHT22;266;49.514;8.294;2023-07-30T09:29:17;23.50;99.90
563;DHT22;266;49.514;8.294;2023-07-30T09:31:49;23.20;99.90
563;DHT22;266;49.514;8.294;2023-07-30T09:34:23;23.10;99.90
563;DHT22;266;49.514;8.294;2023-07-30T09:36:53;22.90;99.90
563;DHT22;266;49.514;8.294;2023-07-30T09:39:23;22.80;99.90
563;DHT22;266;49.514;8.294;2023-07-30T09:41:59;23.00;99.90
563;DHT22;266;49.514;8.294;2023-07-30T09:44:28;23.00;99.90
563;DHT22;266;49.514;8.294;2023-07-30T09:46:55;22.80;99.90
563;DHT22;266;49.514;8.294;2023-07-30T09:49:25;22.70;99.90
563;DHT22;266;49.514;8.294;2023-07-30T09:51:53;22.70;99.90
563;DHT22;266;49.514;8.294;2023-07-30T09:54:22;22.60;99.90
563;DHT22;266;49.514;8.294;2023-07-30T09:56:50;22.60;99.90
563;DHT22;266;49.514;8.294;2023-07-30T09:59:17;22.50;99.90
563;DHT22;266;49.514;8.294;2023-07-30T10:01:47;22.60;99.90
563;DHT22;266;49.514;8.294;2023-07-30T10:04:19;22.60;99.90
563;DHT22;266;49.514;8.294;2023-07-30T10:06:53;22.60;99.90
563;DHT22;266;49.514;8.294;2023-07-30T10:09:25;23.00;99.90
563;DHT22;266;49.514;8.294;2023-07-30T10:11:54;23.70;99.90
563;DHT22;266;49.514;8.294;2023-07-30T10:14:24;24.50;99.90
563;DHT22;266;49.514;8.294;2023-07-30T10:16:53;25.00;99.90
563;DHT22;266;49.514;8.294;2023-07-30T10:19:25;25.60;99.90
563;DHT22;266;49.514;8.294;2023-07-30T10:21:58;26.20;99.90
563;DHT22;266;49.514;8.294;2023-07-30T10:24:27;26.50;99.90
563;DHT22;266;49.514;8.294;2023-07-30T10:26:55;26.20;99.90
563;DHT22;266;49.514;8.294;2023-07-30T10:29:25;25.50;99.90
563;DHT22;266;49.514;8.294;2023-07-30T10:31:55;25.00;99.90
563;DHT22;266;49.514;8.294;2023-07-30T10:34:26;24.60;99.90
563;DHT22;266;49.514;8.294;2023-07-30T10:36:56;24.30;99.90
563;DHT22;266;49.514;8.294;2023-07-30T10:39:26;24.00;99.90
563;DHT22;266;49.514;8.294;2023-07-30T10:41:56;23.90;99.90
563;DHT22;266;49.514;8.294;2023-07-30T10:44:30;23.90;99.90
563;DHT22;266;49.514;8.294;2023-07-30T10:46:59;24.10;99.90
563;DHT22;266;49.514;8.294;2023-07-30T10:49:28;24.50;99.90
563;DHT22;266;49.514;8.294;2023-07-30T10:51:57;24.60;99.90
563;DHT22;266;49.514;8.294;2023-07-30T10:54:25;24.50;99.90
563;DHT22;266;49.514;8.294;2023-07-30T10:56:54;24.40;99.90
563;DHT22;266;49.514;8.294;2023-07-30T10:59:25;24.20;99.90
563;DHT22;266;49.514;8.294;2023-07-30T11:01:53;23.90;99.90
563;DHT22;266;49.514;8.294;2023-07-30T11:04:21;23.80;99.90
563;DHT22;266;49.514;8.294;2023-07-30T11:06:50;23.80;99.90
563;DHT22;266;49.514;8.294;2023-07-30T11:09:21;23.80;99.90
563;DHT22;266;49.514;8.294;2023-07-30T11:11:50;24.10;99.90
563;DHT22;266;49.514;8.294;2023-07-30T11:14:21;24.10;99.90
563;DHT22;266;49.514;8.294;2023-07-30T11:16:50;23.80;99.90
563;DHT22;266;49.514;8.294;2023-07-30T11:19:18;23.70;99.90
563;DHT22;266;49.514;8.294;2023-07-30T11:21:47;23.70;99.90
563;DHT22;266;49.514;8.294;2023-07-30T11:24:21;24.20;99.90
563;DHT22;266;49.514;8.294;2023-07-30T11:26:57;24.50;99.90
563;DHT22;266;49.514;8.294;2023-07-30T11:29:26;24.90;99.90
563;DHT22;266;49.514;8.294;2023-07-30T11:31:56;24.90;99.90
563;DHT22;266;49.514;8.294;2023-07-30T11:34:26;24.60;99.90
563;DHT22;266;49.514;8.294;2023-07-30T11:36:55;24.50;99.90
563;DHT22;266;49.514;8.294;2023-07-30T11:39:24;24.40;99.90
563;DHT22;266;49.514;8.294;2023-07-30T11:41:54;24.10;99.90
563;DHT22;266;49.514;8.294;2023-07-30T11:44:33;23.90;99.90
563;DHT22;266;49.514;8.294;2023-07-30T11:47:01;23.80;99.90
563;DHT22;266;49.514;8.294;2023-07-30T11:49:30;23.90;99.90
563;DHT22;266;49.514;8.294;2023-07-30T11:52:05;24.30;99.90
563;DHT22;266;49.514;8.294;2023-07-30T11:54:36;24.60;99.90
563;DHT22;266;49.514;8.294;2023-07-30T11:57:04;24.30;99.90
563;DHT22;266;49.514;8.294;2023-07-30T11:59:32;23.90;99.90
563;DHT22;266;49.514;8.294;2023-07-30T12:02:00;23.60;99.90
563;DHT22;266;49.514;8.294;2023-07-30T12:04:30;23.60;99.90
563;DHT22;266;49.514;8.294;2023-07-30T12:06:58;23.90;99.90
563;DHT22;266;49.514;8.294;2023-07-30T12:09:28;24.70;99.90
563;DHT22;266;49.514;8.294;2023-07-30T12:12:04;25.30;99.90
563;DHT22;266;49.514;8.294;2023-07-30T12:14:44;25.60;99.90
563;DHT22;266;49.514;8.294;2023-07-30T12:17:12;25.60;99.90
563;DHT22;266;49.514;8.294;2023-07-30T12:19:41;25.30;99.90
563;DHT22;266;49.514;8.294;2023-07-30T12:22:09;24.90;99.90
563;DHT22;266;49.514;8.294;2023-07-30T12:24:37;24.50;99.90
563;DHT22;266;49.514;8.294;2023-07-30T12:27:06;24.50;99.90
563;DHT22;266;49.514;8.294;2023-07-30T12:29:34;25.00;99.90
563;DHT22;266;49.514;8.294;2023-07-30T12:32:03;25.60;99.90
563;DHT22;266;49.514;8.294;2023-07-30T12:34:31;25.70;99.90
563;DHT22;266;49.514;8.294;2023-07-30T12:36:59;25.70;99.90
563;DHT22;266;49.514;8.294;2023-07-30T12:39:29;25.40;99.90
563;DHT22;266;49.514;8.294;2023-07-30T12:41:58;25.40;99.90
563;DHT22;266;49.514;8.294;2023-07-30T12:44:27;25.80;99.90
563;DHT22;266;49.514;8.294;2023-07-30T12:46:55;26.30;99.90
563;DHT22;266;49.514;8.294;2023-07-30T12:49:23;26.60;99.90
563;DHT22;266;49.514;8.294;2023-07-30T12:51:51;27.10;99.90
563;DHT22;266;49.514;8.294;2023-07-30T12:54:19;27.60;99.90
563;DHT22;266;49.514;8.294;2023-07-30T12:56:47;28.10;99.90
563;DHT22;266;49.514;8.294;2023-07-30T12:59:15;28.00;99.90
563;DHT22;266;49.514;8.294;2023-07-30T13:01:44;27.70;99.90
563;DHT22;266;49.514;8.294;2023-07-30T13:04:14;27.60;99.90
563;DHT22;266;49.514;8.294;2023-07-30T13:06:42;27.20;99.90
563;DHT22;266;49.514;8.294;2023-07-30T13:09:10;26.60;99.90
563;DHT22;266;49.514;8.294;2023-07-30T13:11:38;25.90;99.90
563;DHT22;266;49.514;8.294;2023-07-30T13:14:06;25.40;99.90
563;DHT22;266;49.514;8.294;2023-07-30T13:16:34;25.10;99.90
563;DHT22;266;49.514;8.294;2023-07-30T13:19:03;24.70;99.90
563;DHT22;266;49.514;8.294;2023-07-30T13:21:31;24.50;99.90
563;DHT22;266;49.514;8.294;2023-07-30T13:23:59;24.40;99.90
563;DHT22;266;49.514;8.294;2023-07-30T13:26:27;24.70;99.90
563;DHT22;266;49.514;8.294;2023-07-30T13:28:55;24.80;99.90
563;DHT22;266;49.514;8.294;2023-07-30T13:31:23;24.90;99.90
563;DHT22;266;49.514;8.294;2023-07-30T13:33:51;24.90;99.90
563;DHT22;266;49.514;8.294;2023-07-30T13:36:21;24.90;99.90
563;DHT22;266;49.514;8.294;2023-07-30T13:38:49;24.70;99.90
563;DHT22;266;49.514;8.294;2023-07-30T13:41:16;24.80;99.90
563;DHT22;266;49.514;8.294;2023-07-30T13:43:44;25.40;99.90
563;DHT22;266;49.514;8.294;2023-07-30T13:46:12;26.00;99.90
563;DHT22;266;49.514;8.294;2023-07-30T13:48:40;26.40;99.90
563;DHT22;266;49.514;8.294;2023-07-30T13:51:08;26.20;99.90
563;DHT22;266;49.514;8.294;2023-07-30T13:53:38;25.70;99.90
563;DHT22;266;49.514;8.294;2023-07-30T13:56:08;25.80;99.90
563;DHT22;266;49.514;8.294;2023-07-30T13:58:36;26.20;99.90
563;DHT22;266;49.514;8.294;2023-07-30T14:01:04;26.70;99.90
563;DHT22;266;49.514;8.294;2023-07-30T14:03:32;27.50;99.90
563;DHT22;266;49.514;8.294;2023-07-30T14:06:00;28.30;99.90
563;DHT22;266;49.514;8.294;2023-07-30T14:08:28;28.70;99.90
563;DHT22;266;49.514;8.294;2023-07-30T14:10:57;28.90;99.90
563;DHT22;266;49.514;8.294;2023-07-30T14:13:26;29.20;99.90
563;DHT22;266;49.514;8.294;2023-07-30T14:15:55;29.40;99.90
563;DHT22;266;49.514;8.294;2023-07-30T14:18:24;29.20;99.90
563;DHT22;266;49.514;8.294;2023-07-30T14:20:52;28.70;99.90
563;DHT22;266;49.514;8.294;2023-07-30T14:23:20;28.20;99.90
563;DHT22;266;49.514;8.294;2023-07-30T14:25:48;28.10;99.90
563;DHT22;266;49.514;8.294;2023-07-30T14:28:17;28.30;99.90
563;DHT22;266;49.514;8.294;2023-07-30T14:30:45;28.30;99.90
563;DHT22;266;49.514;8.294;2023-07-30T14:33:13;28.30;99.90
563;DHT22;266;49.514;8.294;2023-07-30T14:35:42;28.30;99.90
563;DHT22;266;49.514;8.294;2023-07-30T14:38:10;28.10;99.90
563;DHT22;266;49.514;8.294;2023-07-30T14:40:39;28.10;99.90
563;DHT22;266;49.514;8.294;2023-07-30T14:43:07;28.00;99.90
563;DHT22;266;49.514;8.294;2023-07-30T14:45:36;28.00;99.90
563;DHT22;266;49.514;8.294;2023-07-30T14:48:04;28.10;99.90
563;DHT22;266;49.514;8.294;2023-07-30T14:50:33;28.10;99.90
563;DHT22;266;49.514;8.294;2023-07-30T14:53:00;28.10;99.90
563;DHT22;266;49.514;8.294;2023-07-30T14:55:29;28.20;99.90
563;DHT22;266;49.514;8.294;2023-07-30T14:57:57;28.40;99.90
563;DHT22;266;49.514;8.294;2023-07-30T15:00:27;28.00;99.90
563;DHT22;266;49.514;8.294;2023-07-30T15:02:56;27.80;99.90
563;DHT22;266;49.514;8.294;2023-07-30T15:05:24;27.60;99.90
563;DHT22;266;49.514;8.294;2023-07-30T15:07:52;27.50;99.90
563;DHT22;266;49.514;8.294;2023-07-30T15:10:20;27.60;99.90
563;DHT22;266;49.514;8.294;2023-07-30T15:12:48;27.50;99.90
563;DHT22;266;49.514;8.294;2023-07-30T15:15:16;27.40;99.90
563;DHT22;266;49.514;8.294;2023-07-30T15:17:44;27.50;99.90
563;DHT22;266;49.514;8.294;2023-07-30T15:20:13;27.50;99.90
563;DHT22;266;49.514;8.294;2023-07-30T15:22:41;27.50;99.90
563;DHT22;266;49.514;8.294;2023-07-30T15:25:09;27.50;99.90
563;DHT22;266;49.514;8.294;2023-07-30T15:27:38;27.70;99.90
563;DHT22;266;49.514;8.294;2023-07-30T15:30:06;27.90;99.90
563;DHT22;266;49.514;8.294;2023-07-30T15:32:41;27.90;99.90
563;DHT22;266;49.514;8.294;2023-07-30T15:35:09;27.80;99.90
563;DHT22;266;49.514;8.294;2023-07-30T15:37:39;27.70;99.90
563;DHT22;266;49.514;8.294;2023-07-30T15:40:11;27.60;99.90
563;DHT22;266;49.514;8.294;2023-07-30T15:42:40;27.50;99.90
563;DHT22;266;49.514;8.294;2023-07-30T15:45:09;27.40;99.90
563;DHT22;266;49.514;8.294;2023-07-30T15:47:38;27.30;99.90
563;DHT22;266;49.514;8.294;2023-07-30T15:50:07;26.90;99.90
563;DHT22;266;49.514;8.294;2023-07-30T15:52:35;26.50;99.90
563;DHT22;266;49.514;8.294;2023-07-30T15:55:05;26.20;99.90
563;DHT22;266;49.514;8.294;2023-07-30T15:57:33;26.30;99.90
563;DHT22;266;49.514;8.294;2023-07-30T16:00:03;26.50;99.90
563;DHT22;266;49.514;8.294;2023-07-30T16:02:33;26.50;99.90
563;DHT22;266;49.514;8.294;2023-07-30T16:05:01;26.40;99.90
563;DHT22;266;49.514;8.294;2023-07-30T16:07:29;26.60;99.90
563;DHT22;266;49.514;8.294;2023-07-30T16:09:58;26.70;99.90
563;DHT22;266;49.514;8.294;2023-07-30T16:12:27;26.80;99.90
563;DHT22;266;49.514;8.294;2023-07-30T16:14:55;26.80;99.90
563;DHT22;266;49.514;8.294;2023-07-30T16:17:23;26.90;99.90
563;DHT22;266;49.514;8.294;2023-07-30T16:19:51;26.60;99.90
563;DHT22;266;49.514;8.294;2023-07-30T16:22:20;26.30;99.90
563;DHT22;266;49.514;8.294;2023-07-30T16:24:48;25.80;99.90
563;DHT22;266;49.514;8.294;2023-07-30T16:27:16;25.30;99.90
563;DHT22;266;49.514;8.294;2023-07-30T16:29:46;24.90;99.90
563;DHT22;266;49.514;8.294;2023-07-30T16:32:14;24.40;99.90
563;DHT22;266;49.514;8.294;2023-07-30T16:34:42;24.10;99.90
563;DHT22;266;49.514;8.294;2023-07-30T16:37:10;23.80;99.90
563;DHT22;266;49.514;8.294;2023-07-30T16:39:45;23.50;99.90
563;DHT22;266;49.514;8.294;2023-07-30T16:42:14;23.40;99.90
563;DHT22;266;49.514;8.294;2023-07-30T16:44:42;23.50;99.90